createdAt,value
2018-09-24T00:01:25.144Z,86.30
2018-09-24T00:03:52.747Z,86.50
2018-09-24T00:06:20.331Z,86.60
2018-09-24T00:08:47.947Z,86.70
2018-09-24T00:11:15.567Z,86.60
2018-09-24T00:13:43.215Z,86.70
2018-09-24T00:16:10.788Z,86.20
2018-09-24T00:18:38.462Z,86.70
2018-09-24T00:21:06.270Z,87.00
2018-09-24T00:23:33.854Z,86.20
2018-09-24T00:26:01.459Z,86.50
2018-09-24T00:28:29.099Z,86.40
2018-09-24T00:30:56.712Z,86.70
2018-09-24T00:33:24.339Z,86.80
2018-09-24T00:35:51.876Z,86.60
2018-09-24T00:38:19.462Z,87.80
2018-09-24T00:40:47.148Z,87.50
2018-09-24T00:43:14.744Z,87.00
2018-09-24T00:45:42.355Z,87.60
2018-09-24T00:48:09.926Z,87.40
2018-09-24T00:50:37.567Z,87.70
2018-09-24T00:53:05.200Z,88.10
2018-09-24T00:55:32.807Z,87.70
2018-09-24T00:58:00.414Z,88.00
2018-09-24T01:00:28.014Z,88.10
2018-09-24T01:02:55.635Z,88.40
2018-09-24T01:05:23.284Z,88.60
2018-09-24T01:07:50.930Z,88.70
2018-09-24T01:10:18.538Z,88.30
2018-09-24T01:12:46.166Z,88.30
2018-09-24T01:15:13.776Z,88.40
2018-09-24T01:17:41.394Z,89.80
2018-09-24T01:20:09.963Z,89.80
2018-09-24T01:22:37.650Z,89.30
2018-09-24T01:25:05.530Z,90.10
2018-09-24T01:27:33.175Z,90.00
2018-09-24T01:30:00.872Z,90.20
2018-09-24T01:32:28.443Z,90.40
2018-09-24T01:34:56.055Z,90.10
2018-09-24T01:37:23.703Z,89.90
2018-09-24T01:39:51.299Z,90.50
2018-09-24T01:42:18.858Z,90.30
2018-09-24T01:44:46.569Z,90.50
2018-09-24T01:47:14.187Z,90.60
2018-09-24T01:49:41.742Z,90.60
2018-09-24T01:52:09.440Z,90.80
2018-09-24T01:54:37.119Z,91.10
2018-09-24T01:57:12.463Z,90.60
2018-09-24T01:59:40.839Z,90.70
2018-09-24T02:02:08.482Z,91.10
2018-09-24T02:04:36.267Z,90.90
2018-09-24T02:07:03.875Z,90.70
2018-09-24T02:09:31.623Z,91.00
2018-09-24T02:12:03.990Z,91.00
2018-09-24T02:14:31.629Z,90.90
2018-09-24T02:16:59.252Z,91.10
2018-09-24T02:19:26.858Z,91.40
2018-09-24T02:21:54.451Z,91.40
2018-09-24T02:24:21.992Z,91.20
2018-09-24T02:26:49.624Z,91.40
2018-09-24T02:29:17.233Z,91.10
2018-09-24T02:31:44.884Z,91.50
2018-09-24T02:34:12.623Z,91.90
2018-09-24T02:36:40.590Z,91.70
2018-09-24T02:39:09.211Z,92.20
2018-09-24T02:41:37.431Z,91.60
2018-09-24T02:44:05.028Z,91.70
2018-09-24T02:46:33.141Z,91.50
2018-09-24T02:49:01.888Z,92.00
2018-09-24T02:51:29.898Z,92.10
2018-09-24T02:53:57.532Z,91.60
2018-09-24T02:56:25.240Z,91.80
2018-09-24T02:58:52.875Z,92.00
2018-09-24T03:01:20.565Z,91.90
2018-09-24T03:03:48.255Z,92.00
2018-09-24T03:06:15.893Z,91.90
2018-09-24T03:08:43.512Z,92.20
2018-09-24T03:11:11.263Z,92.10
2018-09-24T03:13:38.839Z,92.20
2018-09-24T03:16:06.555Z,92.10
2018-09-24T03:18:34.086Z,92.50
2018-09-24T03:21:01.779Z,92.40
2018-09-24T03:23:29.370Z,92.40
2018-09-24T03:25:56.963Z,92.60
2018-09-24T03:28:24.509Z,92.80
2018-09-24T03:30:52.162Z,92.70
2018-09-24T03:33:19.727Z,92.90
2018-09-24T03:35:47.360Z,93.30
2018-09-24T03:38:14.955Z,92.90
2018-09-24T03:40:42.535Z,92.90
2018-09-24T03:43:10.128Z,93.20
2018-09-24T03:45:37.727Z,93.30
2018-09-24T03:48:05.645Z,92.90
2018-09-24T03:50:33.299Z,93.10
2018-09-24T03:53:00.912Z,93.30
2018-09-24T03:55:28.599Z,93.20
2018-09-24T03:57:56.243Z,93.00
2018-09-24T04:00:23.873Z,93.50
2018-09-24T04:02:51.496Z,93.20
2018-09-24T04:05:24.678Z,93.40
2018-09-24T04:07:57.919Z,93.30
2018-09-24T04:10:31.110Z,93.50
2018-09-24T04:13:04.226Z,93.20
2018-09-24T04:15:37.364Z,93.30
2018-09-24T04:18:10.515Z,93.30
2018-09-24T04:20:43.750Z,93.60
2018-09-24T04:23:16.807Z,93.30
2018-09-24T04:25:50.136Z,93.30
2018-09-24T04:28:23.274Z,93.10
2018-09-24T04:30:56.512Z,93.20
2018-09-24T04:33:29.636Z,92.90
2018-09-24T04:36:02.780Z,93.30
2018-09-24T04:38:36.075Z,93.10
2018-09-24T04:41:09.314Z,93.00
2018-09-24T04:43:42.422Z,93.30
2018-09-24T04:46:16.663Z,93.30
2018-09-24T04:48:49.932Z,93.30
2018-09-24T04:51:23.230Z,93.70
2018-09-24T04:53:56.382Z,93.90
2018-09-24T04:56:29.603Z,94.20
2018-09-24T04:59:02.683Z,94.10
2018-09-24T05:01:35.900Z,94.60
2018-09-24T05:04:09.127Z,94.50
2018-09-24T05:06:42.423Z,94.30
2018-09-24T05:09:15.719Z,94.70
2018-09-24T05:11:49.003Z,94.40
2018-09-24T05:14:22.117Z,94.00
2018-09-24T05:16:55.399Z,94.10
2018-09-24T05:19:28.527Z,94.10
2018-09-24T05:22:01.834Z,94.00
2018-09-24T05:24:34.878Z,94.00
2018-09-24T05:27:08.168Z,94.30
2018-09-24T05:29:41.263Z,94.30
2018-09-24T05:32:14.457Z,94.50
2018-09-24T05:34:47.632Z,95.10
2018-09-24T05:37:20.762Z,95.20
2018-09-24T05:39:53.979Z,95.30
2018-09-24T05:42:27.271Z,94.80
2018-09-24T05:45:00.311Z,95.00
2018-09-24T05:47:33.572Z,94.40
2018-09-24T05:50:06.851Z,94.20
2018-09-24T05:52:40.131Z,94.40
2018-09-24T05:55:13.216Z,93.80
2018-09-24T05:57:46.511Z,93.90
2018-09-24T06:00:19.871Z,93.80
2018-09-24T06:02:53.154Z,93.80
2018-09-24T06:05:26.295Z,93.60
2018-09-24T06:07:59.432Z,93.50
2018-09-24T06:10:32.800Z,93.60
2018-09-24T06:13:05.989Z,93.90
2018-09-24T06:15:39.182Z,93.20
2018-09-24T06:18:12.369Z,93.30
2018-09-24T06:20:45.509Z,94.00
2018-09-24T06:23:18.730Z,93.40
2018-09-24T06:25:51.891Z,93.60
2018-09-24T06:28:25.049Z,93.20
2018-09-24T06:30:58.419Z,93.10
2018-09-24T06:33:31.695Z,92.60
2018-09-24T06:36:04.983Z,92.40
2018-09-24T06:38:38.206Z,92.10
2018-09-24T06:41:11.595Z,91.60
2018-09-24T06:43:44.827Z,91.90
2018-09-24T06:46:18.171Z,91.80
2018-09-24T06:48:51.282Z,91.10
2018-09-24T06:51:24.575Z,90.90
2018-09-24T06:53:57.837Z,90.40
2018-09-24T06:56:31.042Z,90.10
2018-09-24T06:59:04.284Z,89.10
2018-09-24T07:01:37.435Z,87.90
2018-09-24T07:04:10.595Z,82.70
2018-09-24T07:06:43.738Z,79.80
2018-09-24T07:09:17.041Z,77.70
2018-09-24T07:11:50.227Z,70.10
2018-09-24T07:14:23.447Z,64.60
2018-09-24T07:16:56.767Z,60.60
2018-09-24T07:19:30.025Z,58.00
2018-09-24T07:22:03.403Z,55.00
2018-09-24T07:24:36.638Z,51.70
2018-09-24T07:27:09.804Z,50.00
2018-09-24T07:29:43.055Z,48.70
2018-09-24T07:32:16.363Z,50.70
2018-09-24T07:34:49.451Z,54.00
2018-09-24T07:37:22.690Z,58.70
2018-09-24T07:39:55.775Z,61.80
2018-09-24T07:42:28.946Z,64.90
2018-09-24T07:45:02.216Z,67.00
2018-09-24T07:47:35.503Z,62.40
2018-09-24T07:50:08.808Z,61.60
2018-09-24T07:52:42.170Z,56.00
2018-09-24T07:55:15.441Z,49.10
2018-09-24T07:57:48.720Z,47.00
2018-09-24T08:00:21.927Z,46.40
2018-09-24T08:02:55.054Z,47.90
2018-09-24T08:05:28.344Z,47.50
2018-09-24T08:08:01.564Z,43.60
2018-09-24T08:10:34.783Z,40.60
2018-09-24T08:13:08.366Z,37.40
2018-09-24T08:15:41.746Z,36.00
2018-09-24T08:18:15.073Z,35.90
2018-09-24T08:20:48.258Z,35.20
2018-09-24T08:23:21.638Z,35.60
2018-09-24T08:25:54.870Z,34.70
2018-09-24T08:28:28.089Z,36.80
2018-09-24T08:31:01.212Z,42.00
2018-09-24T08:33:34.495Z,44.50
2018-09-24T08:36:07.816Z,44.10
2018-09-24T08:38:41.095Z,41.80
2018-09-24T08:41:14.395Z,41.90
2018-09-24T08:43:47.571Z,42.60
2018-09-24T08:46:20.810Z,39.10
2018-09-24T08:48:53.924Z,39.60
2018-09-24T08:51:27.393Z,40.30
2018-09-24T08:54:00.509Z,43.20
2018-09-24T08:56:33.758Z,43.50
2018-09-24T08:59:07.075Z,43.50
2018-09-24T09:01:40.182Z,41.20
2018-09-24T09:04:13.475Z,40.70
2018-09-24T09:06:46.859Z,38.70
2018-09-24T09:09:20.183Z,41.70
2018-09-24T09:11:53.405Z,43.90
2018-09-24T09:14:26.655Z,45.60
2018-09-24T09:16:59.755Z,46.20
2018-09-24T09:19:32.963Z,44.20
2018-09-24T09:22:06.270Z,40.90
2018-09-24T09:24:39.316Z,39.30
2018-09-24T09:27:12.504Z,37.70
2018-09-24T09:29:45.888Z,38.70
2018-09-24T09:32:19.352Z,39.00
2018-09-24T09:34:52.534Z,42.00
2018-09-24T09:37:25.734Z,45.60
2018-09-24T09:39:58.902Z,44.40
2018-09-24T09:42:32.039Z,41.20
2018-09-24T09:45:05.087Z,39.70
2018-09-24T09:47:38.615Z,40.90
2018-09-24T09:50:12.674Z,42.90
2018-09-24T09:52:45.898Z,44.00
2018-09-24T09:55:19.086Z,44.90
2018-09-24T09:57:53.039Z,47.20
2018-09-24T10:00:26.286Z,48.80
2018-09-24T10:02:59.510Z,50.40
2018-09-24T10:05:32.728Z,51.60
2018-09-24T10:08:05.963Z,52.10
2018-09-24T10:10:39.258Z,50.40
2018-09-24T10:13:12.383Z,47.30
2018-09-24T10:15:45.719Z,44.00
2018-09-24T10:18:18.827Z,40.60
2018-09-24T10:20:52.070Z,38.90
2018-09-24T10:23:25.410Z,40.30
2018-09-24T10:25:58.560Z,42.10
2018-09-24T10:28:31.639Z,43.90
2018-09-24T10:31:04.879Z,45.10
2018-09-24T10:33:38.049Z,45.60
2018-09-24T10:36:11.427Z,46.70
2018-09-24T10:38:44.743Z,46.90
2018-09-24T10:41:18.098Z,46.70
2018-09-24T10:43:51.350Z,46.50
2018-09-24T10:46:24.727Z,46.30
2018-09-24T10:48:57.987Z,46.80
2018-09-24T10:51:31.168Z,47.00
2018-09-24T10:54:04.473Z,47.40
2018-09-24T10:56:37.694Z,47.40
2018-09-24T10:59:10.991Z,47.00
2018-09-24T11:01:44.280Z,46.50
2018-09-24T11:04:17.519Z,46.20
2018-09-24T11:06:50.735Z,47.20
2018-09-24T11:09:24.060Z,47.90
2018-09-24T11:11:57.310Z,47.90
2018-09-24T11:14:30.430Z,47.10
2018-09-24T11:17:03.731Z,45.80
2018-09-24T11:19:36.786Z,42.10
2018-09-24T11:22:10.069Z,40.40
2018-09-24T11:24:43.326Z,39.60
2018-09-24T11:27:16.573Z,40.10
2018-09-24T11:29:49.811Z,38.70
2018-09-24T11:32:22.971Z,38.00
2018-09-24T11:34:56.324Z,38.10
2018-09-24T11:37:29.568Z,38.00
2018-09-24T11:40:02.682Z,38.10
2018-09-24T11:42:35.815Z,38.50
2018-09-24T11:45:08.930Z,39.80
2018-09-24T11:47:42.143Z,40.20
2018-09-24T11:50:15.385Z,39.90
2018-09-24T11:52:48.535Z,40.10
2018-09-24T11:55:21.811Z,41.20
2018-09-24T11:57:55.056Z,41.70
2018-09-24T12:00:35.087Z,42.00
2018-09-24T12:03:08.322Z,42.10
2018-09-24T12:05:41.566Z,41.60
2018-09-24T12:08:14.664Z,41.80
2018-09-24T12:10:47.715Z,41.70
2018-09-24T12:13:20.914Z,40.80
2018-09-24T12:15:54.272Z,42.10
2018-09-24T12:18:27.663Z,42.70
2018-09-24T12:21:00.902Z,43.00
2018-09-24T12:23:34.111Z,42.60
2018-09-24T12:26:07.210Z,42.20
2018-09-24T12:28:40.280Z,43.10
2018-09-24T12:31:13.351Z,43.10
2018-09-24T12:33:46.597Z,42.40
2018-09-24T12:36:19.826Z,43.00
2018-09-24T12:38:52.994Z,42.50
2018-09-24T12:41:26.138Z,41.60
2018-09-24T12:43:59.295Z,40.30
2018-09-24T12:46:32.546Z,39.40
2018-09-24T12:49:05.587Z,39.30
2018-09-24T12:51:38.707Z,39.90
